Time;durP1;ratioP1;P1;durP2;ratioP2;P2;SDS_P1;SDS_P2;PMS_P1;PMS_P2;Temp;Humidity;BMP_temperature;BMP_pressure;BME280_temperature;BME280_humidity;BME280_pressure;Samples;Min_cycle;Max_cycle;Signal;HPM_P1;HPM_P2
2021/12/27 00:02:04;;;;;;;30.42;13.32;;;-0.60;99.90;;;;;;5031466;28;20072;-74
2021/12/27 00:04:30;;;;;;;26.38;11.55;;;-0.60;99.90;;;;;;5013224;28;20649;-73
2021/12/27 00:06:56;;;;;;;26.70;11.52;;;-0.60;99.90;;;;;;5030377;28;20125;-73
2021/12/27 00:09:21;;;;;;;25.33;11.43;;;-0.60;99.90;;;;;;5012691;28;20053;-73
2021/12/27 00:11:47;;;;;;;22.38;10.73;;;-0.60;99.90;;;;;;5013287;28;20049;-74
2021/12/27 00:14:13;;;;;;;27.17;12.30;;;-0.60;99.90;;;;;;5012670;28;20053;-80
2021/12/27 00:16:39;;;;;;;25.45;11.20;;;0.30;99.90;;;;;;5032333;28;20049;-74
2021/12/27 00:19:04;;;;;;;25.42;11.48;;;-0.60;99.90;;;;;;5033242;28;20049;-73
2021/12/27 00:21:30;;;;;;;27.02;13.00;;;-0.60;99.90;;;;;;5049480;28;20045;-74
2021/12/27 00:23:56;;;;;;;26.60;12.63;;;-0.60;99.90;;;;;;5032792;28;20091;-74
2021/12/27 00:26:21;;;;;;;27.80;12.27;;;0.10;99.90;;;;;;5015742;28;20084;-76
2021/12/27 00:28:47;;;;;;;28.90;13.05;;;-0.60;99.90;;;;;;5032443;28;20122;-74
2021/12/27 00:31:13;;;;;;;28.40;12.65;;;-0.60;99.90;;;;;;5013283;28;20136;-74
2021/12/27 00:33:38;;;;;;;27.70;12.27;;;-0.10;99.90;;;;;;5012931;28;20049;-73
2021/12/27 00:36:04;;;;;;;25.35;11.60;;;-0.60;99.90;;;;;;5031707;28;20525;-73
2021/12/27 00:38:30;;;;;;;27.92;14.02;;;-0.50;99.90;;;;;;5024732;28;20099;-74
2021/12/27 00:40:55;;;;;;;27.38;12.07;;;-0.50;99.90;;;;;;5049716;28;20567;-74
2021/12/27 00:43:21;;;;;;;25.55;12.18;;;-0.50;99.90;;;;;;5049332;28;20041;-74
2021/12/27 00:45:47;;;;;;;24.27;10.73;;;0.80;99.90;;;;;;5029515;28;20521;-74
2021/12/27 00:48:15;;;;;;;29.27;12.25;;;-0.50;99.90;;;;;;5040823;28;20410;-74
2021/12/27 00:50:41;;;;;;;23.13;11.45;;;-0.50;99.90;;;;;;5031484;28;20086;-74
2021/12/27 00:53:07;;;;;;;27.08;11.73;;;-0.50;99.90;;;;;;5049882;28;20052;-74
2021/12/27 00:55:33;;;;;;;29.67;12.05;;;0.00;99.90;;;;;;5032205;28;20504;-74
2021/12/27 00:57:59;;;;;;;25.35;11.57;;;0.40;99.90;;;;;;5050285;28;20107;-74
2021/12/27 01:00:26;;;;;;;27.35;12.45;;;-0.50;99.90;;;;;;5032435;28;20049;-73
2021/12/27 01:02:53;;;;;;;23.77;11.88;;;-0.50;99.90;;;;;;5016487;28;20045;-74
2021/12/27 01:05:20;;;;;;;29.23;12.65;;;-0.50;99.90;;;;;;5030814;28;20095;-80
2021/12/27 01:07:46;;;;;;;27.33;12.75;;;-0.40;99.90;;;;;;5028703;28;20116;-78
2021/12/27 01:13:03;;;;;;;27.63;12.35;;;-0.50;99.90;;;;;;5049205;28;20049;-74
2021/12/27 01:18:04;;;;;;;28.05;12.85;;;-0.50;99.90;;;;;;5017461;28;20470;-75
2021/12/27 01:20:30;;;;;;;31.95;13.35;;;-0.40;99.90;;;;;;5032073;28;20048;-73
2021/12/27 01:22:56;;;;;;;30.13;13.63;;;-0.50;99.90;;;;;;5030757;28;20564;-74
2021/12/27 01:25:22;;;;;;;24.70;12.35;;;0.50;99.90;;;;;;5031129;28;20128;-80
2021/12/27 01:27:51;;;;;;;29.90;13.70;;;-0.50;99.90;;;;;;5011810;28;20080;-74
2021/12/27 01:30:19;;;;;;;28.25;12.95;;;-0.50;99.90;;;;;;4996611;28;20490;-74
2021/12/27 01:32:50;;;;;;;28.35;13.05;;;-0.50;99.90;;;;;;5012139;28;20045;-73
2021/12/27 01:35:17;;;;;;;27.67;12.98;;;-0.40;99.90;;;;;;5031283;28;20036;-74
2021/12/27 01:37:43;;;;;;;;;;;0.00;99.90;;;;;;5031106;28;20064;-74
2021/12/27 01:40:11;;;;;;;31.10;13.50;;;-0.40;99.90;;;;;;5032195;28;19928;-74
2021/12/27 01:42:57;;;;;;;31.20;13.80;;;-0.40;99.90;;;;;;5031305;28;20083;-74
2021/12/27 01:45:24;;;;;;;28.92;13.60;;;-0.50;99.90;;;;;;5032174;28;20081;-80
2021/12/27 01:47:50;;;;;;;26.73;12.15;;;-0.40;99.90;;;;;;5031455;28;20053;-74
2021/12/27 01:50:15;;;;;;;26.17;13.07;;;0.60;99.90;;;;;;5049847;28;20494;-74
2021/12/27 01:52:41;;;;;;;31.88;13.68;;;-0.40;99.90;;;;;;5048022;28;20061;-74
2021/12/27 01:55:07;;;;;;;31.77;13.13;;;-0.50;99.90;;;;;;5035538;28;20096;-74
2021/12/27 01:57:33;;;;;;;30.52;13.65;;;-0.50;99.90;;;;;;5030986;28;20151;-74
2021/12/27 01:59:58;;;;;;;30.35;14.25;;;-0.30;99.90;;;;;;5053746;28;20051;-74
2021/12/27 02:02:25;;;;;;;28.67;13.85;;;0.30;99.90;;;;;;5015961;28;20441;-79
2021/12/27 02:04:51;;;;;;;29.75;13.63;;;0.30;99.90;;;;;;5033558;28;20045;-74
2021/12/27 02:07:17;;;;;;;27.92;13.73;;;0.10;99.90;;;;;;5015086;28;20045;-74
2021/12/27 02:09:54;;;;;;;29.48;13.30;;;-0.50;99.90;;;;;;5015797;28;20128;-75
2021/12/27 02:12:20;;;;;;;29.40;13.55;;;-0.50;99.90;;;;;;5034922;28;20139;-78
2021/12/27 02:14:46;;;;;;;27.85;14.25;;;-0.40;99.90;;;;;;5052127;28;20124;-74
2021/12/27 02:17:11;;;;;;;29.92;14.02;;;-0.40;99.90;;;;;;5035471;28;20143;-75
2021/12/27 02:19:37;;;;;;;30.42;14.70;;;0.10;99.90;;;;;;5051802;28;20053;-74
2021/12/27 02:22:03;;;;;;;;;;;0.10;99.90;;;;;;5015082;28;20120;-74
2021/12/27 02:24:29;;;;;;;30.63;13.88;;;-0.40;99.90;;;;;;4995763;28;19924;-78
2021/12/27 02:26:54;;;;;;;31.25;14.48;;;-0.40;99.90;;;;;;5034880;28;20161;-74
2021/12/27 02:29:20;;;;;;;30.42;13.77;;;0.20;99.90;;;;;;5035144;28;20045;-74
2021/12/27 02:31:50;;;;;;;31.00;14.23;;;-0.40;99.90;;;;;;5052302;28;20041;-75
2021/12/27 02:34:16;;;;;;;26.55;13.68;;;-0.40;99.90;;;;;;5053036;28;20049;-75
2021/12/27 02:36:41;;;;;;;32.25;14.60;;;0.60;99.90;;;;;;5016865;28;20052;-74
2021/12/27 02:39:07;;;;;;;30.65;14.20;;;-0.40;99.90;;;;;;5015044;28;20076;-75
2021/12/27 02:41:33;;;;;;;28.38;13.93;;;-0.30;99.90;;;;;;5031686;28;20057;-74
2021/12/27 02:43:58;;;;;;;29.92;13.73;;;-0.40;99.90;;;;;;4999038;28;20050;-75
2021/12/27 02:46:24;;;;;;;30.88;14.13;;;-0.40;99.90;;;;;;5015223;28;20049;-75
2021/12/27 02:48:50;;;;;;;30.60;13.88;;;-0.40;99.90;;;;;;5014116;28;20111;-74
2021/12/27 02:51:18;;;;;;;28.85;13.80;;;-0.40;99.90;;;;;;5014226;28;20115;-73
2021/12/27 02:53:44;;;;;;;31.13;13.63;;;-0.40;99.90;;;;;;5014919;28;20046;-74
2021/12/27 02:56:10;;;;;;;29.73;13.65;;;-0.30;99.90;;;;;;5031950;28;20539;-74
2021/12/27 02:58:36;;;;;;;33.03;13.85;;;-0.40;99.90;;;;;;5032028;28;20061;-73
2021/12/27 03:01:07;;;;;;;32.53;14.40;;;0.10;99.90;;;;;;5032509;28;20053;-74
2021/12/27 03:03:33;;;;;;;29.17;13.75;;;-0.40;99.90;;;;;;5040358;28;20048;-74
2021/12/27 03:05:59;;;;;;;30.95;13.60;;;-0.30;99.90;;;;;;5033013;28;20623;-75
2021/12/27 03:08:26;;;;;;;31.60;14.70;;;-0.30;99.90;;;;;;5034377;28;20053;-74
2021/12/27 03:10:58;;;;;;;28.27;13.38;;;-0.30;99.90;;;;;;5033830;28;20048;-73
2021/12/27 03:13:29;;;;;;;29.75;13.93;;;-0.30;99.90;;;;;;5051136;28;20053;-74
2021/12/27 03:15:58;;;;;;;32.33;14.52;;;0.60;99.90;;;;;;5034003;28;20045;-74
2021/12/27 03:18:24;;;;;;;29.98;13.55;;;-0.30;99.90;;;;;;5019796;28;20059;-74
2021/12/27 03:20:50;;;;;;;31.60;15.00;;;-0.30;99.90;;;;;;5031967;28;20042;-74
2021/12/27 03:23:16;;;;;;;30.42;14.40;;;0.60;99.90;;;;;;5041879;28;20138;-74
2021/12/27 03:25:42;;;;;;;29.00;14.38;;;-0.30;99.90;;;;;;5033959;28;20510;-74
2021/12/27 03:28:08;;;;;;;32.90;14.95;;;-0.30;99.90;;;;;;5033733;28;20048;-74
2021/12/27 03:30:34;;;;;;;29.52;13.65;;;-0.30;99.90;;;;;;5017676;28;20045;-80
2021/12/27 03:33:01;;;;;;;29.50;13.68;;;-0.30;99.90;;;;;;5034051;28;20048;-74
2021/12/27 03:35:34;;;;;;;34.55;14.65;;;-0.30;99.90;;;;;;5034434;28;20057;-74
2021/12/27 03:38:01;;;;;;;30.23;14.07;;;-0.30;99.90;;;;;;5033722;28;20052;-74
2021/12/27 03:40:27;;;;;;;30.95;14.55;;;-0.30;99.90;;;;;;5050774;28;20132;-73
2021/12/27 03:42:55;;;;;;;31.73;13.65;;;-0.30;99.90;;;;;;5022304;28;20063;-74
2021/12/27 03:45:25;;;;;;;29.45;14.25;;;-0.30;99.90;;;;;;5014398;28;20056;-74
2021/12/27 03:47:51;;;;;;;31.10;14.75;;;-0.30;99.90;;;;;;5012734;28;20103;-74
2021/12/27 03:50:18;;;;;;;32.22;14.82;;;-0.30;99.90;;;;;;5027622;28;20053;-74
2021/12/27 03:52:45;;;;;;;29.00;13.88;;;-0.30;99.90;;;;;;5031989;28;20060;-74
2021/12/27 03:55:11;;;;;;;30.20;13.95;;;-0.30;99.90;;;;;;5017623;28;20059;-74
2021/12/27 03:57:39;;;;;;;31.20;15.30;;;-0.30;99.90;;;;;;5050656;28;20513;-81
2021/12/27 04:02:54;;;;;;;29.25;14.02;;;-0.20;99.90;;;;;;5033015;28;20061;-73
2021/12/27 04:05:21;;;;;;;33.47;15.07;;;0.00;99.90;;;;;;5033852;28;20052;-74
2021/12/27 04:07:55;;;;;;;31.50;15.05;;;-0.20;99.90;;;;;;4997351;28;20056;-74
2021/12/27 04:10:21;;;;;;;27.30;13.30;;;-0.30;99.90;;;;;;5014040;28;20088;-74
2021/12/27 04:12:46;;;;;;;31.10;15.50;;;-0.20;99.90;;;;;;5012137;28;20045;-74
2021/12/27 04:15:13;;;;;;;31.17;14.77;;;-0.30;99.90;;;;;;4997446;28;20055;-75
2021/12/27 04:17:38;;;;;;;30.20;14.82;;;-0.30;99.90;;;;;;5012999;28;20402;-80
2021/12/27 04:20:05;;;;;;;32.00;15.80;;;-0.20;99.90;;;;;;5042111;28;20049;-75
2021/12/27 04:22:33;;;;;;;28.92;14.77;;;-0.20;99.90;;;;;;5030917;28;20536;-74
2021/12/27 04:25:00;;;;;;;32.08;14.57;;;-0.20;99.90;;;;;;5030628;28;20117;-74
2021/12/27 04:27:26;;;;;;;28.17;12.93;;;-0.20;99.90;;;;;;5012881;28;20052;-74
2021/12/27 04:29:51;;;;;;;31.23;14.05;;;-0.20;99.90;;;;;;5030633;28;20045;-74
2021/12/27 04:32:17;;;;;;;30.33;14.73;;;-0.20;99.90;;;;;;5013258;28;20096;-76
2021/12/27 04:34:43;;;;;;;30.48;15.13;;;-0.20;99.90;;;;;;5026553;28;20049;-74
2021/12/27 04:37:09;;;;;;;31.98;14.38;;;-0.20;99.90;;;;;;5032473;28;20084;-74
2021/12/27 04:39:34;;;;;;;32.40;15.23;;;0.50;99.90;;;;;;5028260;28;20049;-74
2021/12/27 04:42:01;;;;;;;30.90;14.75;;;0.60;99.90;;;;;;5012012;28;20234;-74
2021/12/27 04:44:27;;;;;;;29.70;14.70;;;-0.20;99.90;;;;;;5030575;28;20491;-74
2021/12/27 04:46:52;;;;;;;34.92;15.93;;;-0.20;99.90;;;;;;5012031;28;20056;-74
2021/12/27 04:49:18;;;;;;;30.25;14.60;;;-0.20;99.90;;;;;;5030535;28;20068;-74
2021/12/27 04:51:44;;;;;;;30.95;14.68;;;-0.20;99.90;;;;;;4995541;28;20119;-74
2021/12/27 04:54:10;;;;;;;31.10;16.00;;;-0.20;99.90;;;;;;5012519;28;20056;-75
2021/12/27 04:56:36;;;;;;;34.85;15.13;;;-0.20;99.90;;;;;;5012843;28;20053;-74
2021/12/27 04:59:02;;;;;;;33.20;14.40;;;-0.20;99.90;;;;;;5012507;28;20103;-74
2021/12/27 05:01:27;;;;;;;31.85;14.82;;;-0.10;99.90;;;;;;5013039;28;20046;-74
2021/12/27 05:03:53;;;;;;;33.42;16.00;;;-0.20;99.90;;;;;;5021787;28;20049;-75
2021/12/27 05:06:19;;;;;;;31.67;16.15;;;-0.10;99.90;;;;;;5019621;28;20398;-74
2021/12/27 05:08:45;;;;;;;34.72;15.60;;;0.60;99.90;;;;;;5031546;28;20162;-75
2021/12/27 05:11:10;;;;;;;29.17;13.85;;;-0.10;99.90;;;;;;5049946;28;20110;-74
2021/12/27 05:13:36;;;;;;;33.03;13.80;;;-0.10;99.90;;;;;;5050369;28;20402;-74
2021/12/27 05:16:02;;;;;;;;;;;-0.10;99.90;;;;;;5029254;28;20151;-74
2021/12/27 05:18:28;;;;;;;31.25;15.10;;;-0.20;99.90;;;;;;4996617;28;19925;-75
2021/12/27 05:20:54;;;;;;;29.58;14.18;;;-0.10;99.90;;;;;;5011212;28;20064;-74
2021/12/27 05:23:20;;;;;;;33.60;16.05;;;-0.20;99.90;;;;;;5012428;28;20107;-74
2021/12/27 05:25:46;;;;;;;35.42;15.80;;;-0.20;99.90;;;;;;5012302;28;20041;-79
2021/12/27 05:28:12;;;;;;;;;;;-0.20;99.90;;;;;;5006409;28;20049;-75
2021/12/27 05:30:39;;;;;;;31.73;15.23;;;-0.10;99.90;;;;;;5019877;28;19921;-75
2021/12/27 05:33:05;;;;;;;31.80;14.55;;;-0.10;99.90;;;;;;5016238;28;20548;-75
2021/12/27 05:35:30;;;;;;;30.52;15.27;;;-0.10;99.90;;;;;;5017315;28;20049;-75
2021/12/27 05:37:56;;;;;;;32.72;15.23;;;-0.10;99.90;;;;;;5052175;28;20044;-74
2021/12/27 05:40:23;;;;;;;30.75;15.13;;;-0.10;99.90;;;;;;5036414;28;20084;-74
2021/12/27 05:42:51;;;;;;;36.50;15.52;;;-0.10;99.90;;;;;;5052827;28;20084;-78
2021/12/27 05:45:18;;;;;;;33.30;15.15;;;0.30;99.90;;;;;;5051684;28;20053;-76
2021/12/27 05:47:44;;;;;;;33.75;15.98;;;0.00;99.90;;;;;;5019096;28;20483;-77
2021/12/27 05:50:12;;;;;;;33.35;14.95;;;-0.10;99.90;;;;;;5053066;28;20156;-77
2021/12/27 05:52:38;;;;;;;30.45;14.93;;;-0.10;99.90;;;;;;5052292;28;20143;-77
2021/12/27 05:55:05;;;;;;;33.38;15.95;;;-0.10;99.90;;;;;;5035700;28;20061;-78
2021/12/27 05:57:31;;;;;;;36.28;15.35;;;-0.10;99.90;;;;;;5035674;28;20506;-77
2021/12/27 05:59:57;;;;;;;32.40;15.35;;;-0.10;99.90;;;;;;5032203;28;20045;-78
2021/12/27 06:02:22;;;;;;;;;;;0.00;99.90;;;;;;5016544;28;20058;-77
2021/12/27 06:04:48;;;;;;;33.20;15.65;;;0.70;99.90;;;;;;5015984;28;19925;-83
2021/12/27 06:07:14;;;;;;;35.22;15.90;;;-0.10;99.90;;;;;;5018830;28;20048;-77
2021/12/27 06:09:40;;;;;;;34.78;15.88;;;0.00;99.90;;;;;;5040121;28;20045;-77
2021/12/27 06:12:06;;;;;;;35.03;16.33;;;-0.10;99.90;;;;;;5035598;28;20041;-77
2021/12/27 06:14:32;;;;;;;35.53;16.33;;;0.00;99.90;;;;;;5035736;28;20045;-77
2021/12/27 06:16:58;;;;;;;37.92;16.63;;;-0.10;99.90;;;;;;5052736;28;20094;-77
2021/12/27 06:19:23;;;;;;;30.75;15.27;;;-0.10;99.90;;;;;;5019201;28;20478;-78
2021/12/27 06:21:50;;;;;;;38.97;17.55;;;0.20;99.90;;;;;;5034535;28;20052;-82
2021/12/27 06:24:15;;;;;;;37.00;17.00;;;0.20;99.90;;;;;;5052591;28;20059;-77
2021/12/27 06:26:41;;;;;;;38.22;17.08;;;0.00;99.90;;;;;;5002576;28;20045;-77
2021/12/27 06:29:07;;;;;;;36.58;16.00;;;0.80;99.90;;;;;;5014743;28;20133;-77
2021/12/27 06:31:33;;;;;;;36.83;17.23;;;-0.10;99.90;;;;;;4983108;28;20060;-76
2021/12/27 06:33:58;;;;;;;43.10;16.58;;;-0.10;99.90;;;;;;5015271;28;20052;-77
2021/12/27 06:36:24;;;;;;;34.92;16.23;;;0.90;99.90;;;;;;5014646;28;20053;-76
2021/12/27 06:38:50;;;;;;;33.58;15.75;;;-0.10;99.90;;;;;;5019021;28;20107;-80
2021/12/27 06:41:16;;;;;;;35.13;16.30;;;0.00;99.90;;;;;;5050874;28;20107;-77
2021/12/27 06:43:42;;;;;;;38.90;18.25;;;0.00;99.90;;;;;;5052816;28;20102;-77
2021/12/27 06:46:08;;;;;;;40.88;17.20;;;0.00;99.90;;;;;;5034589;28;20505;-76
2021/12/27 06:48:34;;;;;;;40.78;17.30;;;0.00;99.90;;;;;;5025808;28;20065;-77
2021/12/27 06:51:00;;;;;;;35.28;16.98;;;0.00;99.90;;;;;;5044398;28;20049;-77
2021/12/27 06:53:30;;;;;;;38.42;18.33;;;0.20;99.90;;;;;;5034762;28;20118;-76
2021/12/27 06:55:57;;;;;;;39.75;18.13;;;0.00;99.90;;;;;;5034675;28;20080;-77
2021/12/27 06:58:24;;;;;;;39.08;17.08;;;0.00;99.90;;;;;;5023204;28;20045;-76
2021/12/27 07:00:50;;;;;;;36.53;16.77;;;0.00;99.90;;;;;;5032504;28;20056;-77
2021/12/27 07:03:16;;;;;;;39.38;17.75;;;0.00;99.90;;;;;;5032176;28;20049;-77
2021/12/27 07:05:43;;;;;;;36.90;17.00;;;0.00;99.90;;;;;;5014285;28;20528;-77
2021/12/27 07:08:09;;;;;;;35.15;16.55;;;0.90;99.90;;;;;;5031137;28;20506;-77
2021/12/27 07:10:35;;;;;;;;;;;0.80;99.90;;;;;;5033664;28;20057;-77
2021/12/27 07:13:03;;;;;;;36.88;16.77;;;1.00;99.90;;;;;;5015250;28;19947;-77
2021/12/27 07:15:30;;;;;;;36.05;16.35;;;0.10;99.90;;;;;;5034858;28;20049;-76
2021/12/27 07:17:56;;;;;;;35.03;17.08;;;0.10;99.90;;;;;;5051837;28;20383;-83
2021/12/27 07:20:22;;;;;;;37.67;16.33;;;0.10;99.90;;;;;;5034492;28;20130;-77
2021/12/27 07:22:49;;;;;;;32.58;15.63;;;0.10;99.90;;;;;;5013935;28;20053;-76
2021/12/27 07:25:15;;;;;;;38.78;16.70;;;0.10;99.90;;;;;;5031723;28;20056;-76
2021/12/27 07:27:40;;;;;;;38.03;15.93;;;0.10;99.90;;;;;;5021194;28;20053;-78
2021/12/27 07:30:11;;;;;;;38.03;16.48;;;0.10;99.90;;;;;;5022184;28;20041;-77
2021/12/27 07:32:37;;;;;;;40.45;17.70;;;0.10;99.90;;;;;;5040438;28;20045;-76
2021/12/27 07:35:04;;;;;;;35.17;16.92;;;0.10;99.90;;;;;;5029628;28;20083;-76
2021/12/27 07:37:30;;;;;;;34.13;15.95;;;0.10;99.90;;;;;;5032894;28;20061;-77
2021/12/27 07:39:56;;;;;;;41.50;17.55;;;0.20;99.90;;;;;;5033839;28;20407;-76
2021/12/27 07:42:22;;;;;;;40.80;17.00;;;0.20;99.90;;;;;;5050613;28;20049;-78
2021/12/27 07:44:48;;;;;;;38.88;16.52;;;0.20;99.90;;;;;;5050989;28;20087;-77
2021/12/27 07:47:14;;;;;;;35.67;17.13;;;0.60;99.90;;;;;;5032871;28;20064;-77
2021/12/27 07:49:40;;;;;;;37.63;17.15;;;0.20;99.90;;;;;;5033883;28;20128;-78
2021/12/27 07:52:08;;;;;;;42.08;18.83;;;0.20;99.90;;;;;;5031875;28;20053;-80
2021/12/27 07:54:34;;;;;;;41.17;16.83;;;0.30;99.90;;;;;;5026222;28;20050;-76
2021/12/27 07:57:00;;;;;;;;;;;0.30;99.90;;;;;;5013696;28;20050;-83
2021/12/27 07:59:27;;;;;;;37.75;17.73;;;0.30;99.90;;;;;;4997808;28;19921;-77
2021/12/27 08:01:52;;;;;;;37.22;16.73;;;0.30;99.90;;;;;;5014102;28;20049;-78
2021/12/27 08:04:18;;;;;;;42.08;18.23;;;0.30;99.90;;;;;;5030968;28;20041;-77
2021/12/27 08:06:44;;;;;;;40.28;17.95;;;0.30;99.90;;;;;;5030511;28;20132;-77
2021/12/27 08:09:10;;;;;;;42.63;17.58;;;0.40;99.90;;;;;;5012943;28;20517;-77
2021/12/27 08:11:35;;;;;;;40.65;16.95;;;0.40;99.90;;;;;;5013259;28;20060;-77
2021/12/27 08:14:01;;;;;;;46.70;19.00;;;0.90;99.90;;;;;;5019701;28;20053;-83
2021/12/27 08:16:27;;;;;;;39.45;17.20;;;0.40;99.90;;;;;;5031504;28;20057;-76
2021/12/27 08:18:55;;;;;;;41.67;17.08;;;0.60;99.90;;;;;;5033579;28;20486;-76
2021/12/27 08:21:22;;;;;;;45.15;16.77;;;0.50;99.90;;;;;;5015414;28;20052;-77
2021/12/27 08:23:48;;;;;;;44.90;18.70;;;1.10;99.90;;;;;;5050743;28;20411;-76
2021/12/27 08:26:14;;;;;;;48.28;18.13;;;0.50;99.90;;;;;;5032348;28;20060;-79
2021/12/27 08:28:41;;;;;;;45.90;17.73;;;0.50;99.90;;;;;;5051004;28;20044;-78
2021/12/27 08:31:07;;;;;;;45.88;18.25;;;1.00;99.90;;;;;;4999765;28;20238;-77
2021/12/27 08:33:32;;;;;;;45.58;18.95;;;0.50;99.90;;;;;;5030263;28;20513;-76
2021/12/27 08:35:58;;;;;;;44.85;17.70;;;0.60;99.90;;;;;;5041169;28;20045;-77
2021/12/27 08:38:24;;;;;;;40.15;17.85;;;0.90;99.90;;;;;;5006800;28;20265;-77
2021/12/27 08:40:50;;;;;;;49.67;18.98;;;0.60;99.90;;;;;;5013001;28;20621;-79
2021/12/27 08:43:15;;;;;;;45.88;18.25;;;1.00;99.90;;;;;;5015222;28;20071;-77
2021/12/27 08:45:41;;;;;;;41.40;16.80;;;1.20;99.90;;;;;;5007816;28;20152;-77
2021/12/27 08:48:07;;;;;;;46.45;17.95;;;0.70;99.90;;;;;;5012750;28;20513;-82
2021/12/27 08:50:33;;;;;;;47.42;18.27;;;0.70;99.90;;;;;;5020657;28;20075;-77
2021/12/27 08:52:58;;;;;;;47.17;17.25;;;0.70;99.90;;;;;;5038826;28;20038;-77
2021/12/27 08:55:24;;;;;;;53.42;19.60;;;0.80;99.90;;;;;;5038055;28;20061;-77
2021/12/27 08:57:50;;;;;;;50.88;19.42;;;0.80;99.90;;;;;;5037633;28;20037;-80
2021/12/27 09:00:16;;;;;;;56.05;19.52;;;0.90;99.90;;;;;;5017548;28;20076;-77
2021/12/27 09:02:46;;;;;;;57.65;19.60;;;0.80;99.90;;;;;;5024123;28;20080;-77
2021/12/27 09:05:12;;;;;;;53.22;18.92;;;0.90;99.90;;;;;;5018440;28;20045;-77
2021/12/27 09:07:38;;;;;;;58.60;19.50;;;0.90;99.90;;;;;;5029982;28;20052;-78
2021/12/27 09:10:05;;;;;;;59.83;21.95;;;0.90;99.90;;;;;;5049832;28;20045;-78
2021/12/27 09:12:31;;;;;;;64.38;19.20;;;0.90;99.90;;;;;;5050036;28;20045;-77
2021/12/27 09:14:56;;;;;;;59.08;20.52;;;1.70;99.90;;;;;;5039312;28;20056;-77
2021/12/27 09:17:22;;;;;;;72.05;20.80;;;0.90;99.90;;;;;;5036755;28;20038;-77
2021/12/27 09:19:48;;;;;;;63.15;19.83;;;1.00;99.90;;;;;;4995820;28;20487;-80
2021/12/27 09:22:15;;;;;;;68.72;21.73;;;1.00;99.90;;;;;;5011149;28;20132;-77
2021/12/27 09:24:41;;;;;;;62.42;22.35;;;1.00;99.90;;;;;;5012820;28;20065;-77
2021/12/27 09:27:07;;;;;;;75.65;21.98;;;1.00;99.90;;;;;;5012655;28;20053;-77
2021/12/27 09:29:33;;;;;;;73.50;21.08;;;1.00;99.90;;;;;;5012521;28;20072;-77
2021/12/27 09:31:59;;;;;;;75.07;22.23;;;1.00;99.90;;;;;;4996724;28;20049;-77
2021/12/27 09:34:25;;;;;;;73.35;21.95;;;1.10;99.90;;;;;;5012454;28;20064;-76
2021/12/27 09:36:50;;;;;;;86.43;22.27;;;1.70;99.90;;;;;;5036362;28;20049;-77
2021/12/27 09:39:16;;;;;;;70.63;22.27;;;1.20;99.90;;;;;;5040862;28;20073;-77
2021/12/27 09:41:43;;;;;;;77.13;20.83;;;1.20;99.90;;;;;;5012317;28;20473;-77
2021/12/27 09:44:08;;;;;;;;;;;1.10;99.90;;;;;;5013407;28;20135;-77
2021/12/27 09:46:34;;;;;;;88.10;22.17;;;1.10;99.90;;;;;;4995500;28;20028;-77
2021/12/27 09:49:03;;;;;;;;;;;1.10;99.90;;;;;;4993177;28;20076;-76
2021/12/27 09:51:30;;;;;;;73.07;22.70;;;2.00;99.90;;;;;;5008142;28;19928;-77
2021/12/27 09:53:56;;;;;;;77.22;21.95;;;1.20;99.90;;;;;;5009174;28;20042;-76
2021/12/27 09:56:22;;;;;;;;;;;1.30;99.90;;;;;;5009171;28;20103;-77
2021/12/27 09:58:48;;;;;;;73.43;22.50;;;1.30;99.90;;;;;;5014230;28;20371;-76
2021/12/27 10:01:13;;;;;;;88.68;24.65;;;1.30;99.90;;;;;;5006222;28;20057;-76
2021/12/27 10:03:54;;;;;;;79.75;22.45;;;1.30;99.90;;;;;;5016481;28;20056;-78
2021/12/27 10:06:21;;;;;;;94.57;25.98;;;1.30;99.90;;;;;;5009203;28;20117;-79
2021/12/27 10:08:51;;;;;;;98.65;24.25;;;1.40;99.90;;;;;;5015612;28;20057;-76
2021/12/27 10:11:29;;;;;;;93.00;24.42;;;1.40;99.90;;;;;;5009516;28;20050;-86
2021/12/27 10:14:10;;;;;;;86.63;24.63;;;1.40;99.90;;;;;;4993317;28;20046;-78
2021/12/27 10:16:48;;;;;;;91.85;24.15;;;1.40;99.90;;;;;;5027528;28;20057;-77
2021/12/27 10:19:16;;;;;;;104.47;24.73;;;1.40;99.90;;;;;;5005054;28;20077;-77
2021/12/27 10:21:43;;;;;;;104.43;26.20;;;1.40;99.90;;;;;;5016424;28;20435;-77
2021/12/27 10:24:16;;;;;;;90.53;25.80;;;1.50;99.90;;;;;;5022017;28;20086;-77
2021/12/27 10:26:45;;;;;;;103.60;25.58;;;1.50;99.90;;;;;;5012555;28;20037;-77
2021/12/27 10:29:23;;;;;;;102.90;26.13;;;2.30;99.90;;;;;;5016640;28;20096;-77
2021/12/27 10:31:57;;;;;;;111.68;27.25;;;1.60;99.90;;;;;;5014393;28;20052;-77
2021/12/27 10:34:25;;;;;;;118.45;29.33;;;1.60;99.90;;;;;;4995316;28;20484;-77
2021/12/27 10:36:58;;;;;;;111.68;27.15;;;1.60;99.90;;;;;;5012340;28;20491;-77
2021/12/27 10:39:29;;;;;;;101.50;26.23;;;2.20;99.90;;;;;;5011475;28;20042;-77
2021/12/27 10:42:07;;;;;;;105.70;26.42;;;1.70;99.90;;;;;;5010983;28;20056;-77
2021/12/27 10:44:36;;;;;;;109.63;25.58;;;1.70;99.90;;;;;;5024070;28;20046;-78
2021/12/27 10:47:02;;;;;;;103.63;25.75;;;1.70;99.90;;;;;;5015015;28;20081;-77
2021/12/27 10:49:47;;;;;;;107.57;26.08;;;1.70;99.90;;;;;;5014549;28;20219;-77
2021/12/27 10:52:13;;;;;;;118.32;27.42;;;1.70;99.90;;;;;;5017689;28;20049;-77
2021/12/27 10:54:39;;;;;;;93.88;25.75;;;1.70;99.90;;;;;;5019294;28;20045;-79
2021/12/27 10:57:05;;;;;;;98.05;23.55;;;1.80;99.90;;;;;;5031229;28;20107;-77
2021/12/27 10:59:31;;;;;;;102.57;26.17;;;1.80;99.90;;;;;;5034073;28;20151;-77
2021/12/27 11:02:09;;;;;;;109.97;27.25;;;2.00;99.90;;;;;;5028181;28;20422;-76
2021/12/27 11:04:36;;;;;;;110.45;27.20;;;1.80;99.90;;;;;;5018709;28;20084;-78
2021/12/27 11:07:04;;;;;;;107.47;26.65;;;1.80;99.90;;;;;;5016764;28;20049;-77
2021/12/27 11:09:31;;;;;;;125.68;29.73;;;1.90;99.90;;;;;;5027783;28;20522;-78
2021/12/27 11:11:58;;;;;;;98.72;25.30;;;1.80;99.90;;;;;;5008033;28;20140;-77
2021/12/27 11:14:24;;;;;;;109.63;26.73;;;1.90;99.90;;;;;;5005569;28;20049;-77
2021/12/27 11:16:50;;;;;;;113.78;29.15;;;1.90;99.90;;;;;;5033186;28;20045;-77
2021/12/27 11:19:16;;;;;;;119.45;27.60;;;1.90;99.90;;;;;;4997807;28;20041;-77
2021/12/27 11:21:42;;;;;;;115.47;24.95;;;1.90;99.90;;;;;;5013409;28;20426;-77
2021/12/27 11:24:08;;;;;;;;;;;2.00;99.90;;;;;;5040189;28;20057;-75
2021/12/27 11:26:37;;;;;;;113.82;24.05;;;2.80;99.90;;;;;;5033241;28;19947;-74
2021/12/27 11:29:17;;;;;;;119.35;28.10;;;2.00;99.90;;;;;;5022648;28;20075;-74
2021/12/27 11:31:46;;;;;;;111.80;25.85;;;2.00;99.90;;;;;;5014614;28;20053;-77
2021/12/27 11:34:14;;;;;;;137.38;27.80;;;2.00;99.90;;;;;;5014919;28;20406;-74
2021/12/27 11:36:46;;;;;;;138.57;27.73;;;2.00;99.90;;;;;;5013888;28;20560;-75
2021/12/27 11:39:26;;;;;;;105.93;26.52;;;2.10;99.90;;;;;;5014656;28;20111;-74
2021/12/27 11:42:04;;;;;;;140.90;28.30;;;2.10;99.90;;;;;;5031251;28;20376;-75
2021/12/27 11:44:37;;;;;;;137.25;27.85;;;2.10;99.90;;;;;;5015713;28;20056;-82
2021/12/27 11:47:04;;;;;;;118.95;27.05;;;2.10;99.90;;;;;;5028466;28;20120;-76
2021/12/27 11:49:32;;;;;;;121.78;29.35;;;2.10;99.90;;;;;;5038674;28;20418;-81
2021/12/27 11:52:25;;;;;;;125.05;27.35;;;2.10;99.90;;;;;;5018497;28;20051;-77
2021/12/27 11:54:53;;;;;;;131.55;28.27;;;2.20;99.90;;;;;;5020956;28;20148;-76
2021/12/27 11:57:53;;;;;;;115.07;26.30;;;2.90;99.90;;;;;;5008581;28;20041;-76
2021/12/27 12:00:26;;;;;;;105.30;24.98;;;2.20;99.90;;;;;;5021864;28;20080;-75
2021/12/27 12:03:00;;;;;;;110.72;26.42;;;2.20;99.90;;;;;;5021074;28;20127;-75
2021/12/27 12:05:45;;;;;;;106.57;25.58;;;2.30;99.90;;;;;;5017303;28;20050;-75
2021/12/27 12:08:36;;;;;;;100.40;26.15;;;2.30;99.90;;;;;;5039107;28;20119;-75
2021/12/27 12:11:10;;;;;;;97.05;23.58;;;2.40;99.90;;;;;;5033817;28;20080;-76
2021/12/27 12:13:42;;;;;;;102.18;26.00;;;2.40;99.90;;;;;;5019787;28;20044;-75
2021/12/27 12:16:16;;;;;;;95.80;24.60;;;3.00;99.90;;;;;;5038345;28;20089;-79
2021/12/27 12:18:43;;;;;;;91.22;24.52;;;2.50;99.90;;;;;;5018781;28;20052;-76
2021/12/27 12:21:34;;;;;;;84.22;23.98;;;2.50;99.90;;;;;;5029635;28;20052;-76
2021/12/27 12:24:00;;;;;;;88.22;23.52;;;2.60;99.90;;;;;;5033071;28;20712;-75
2021/12/27 12:26:28;;;;;;;86.45;23.10;;;2.60;99.90;;;;;;5033088;28;20080;-75
2021/12/27 12:29:04;;;;;;;92.88;23.92;;;2.60;99.90;;;;;;5033012;28;20100;-75
2021/12/27 12:31:32;;;;;;;78.03;22.67;;;2.80;99.90;;;;;;5050316;28;20052;-75
2021/12/27 12:34:18;;;;;;;82.22;22.30;;;2.70;99.90;;;;;;5032340;28;20052;-76
2021/12/27 12:36:57;;;;;;;76.82;23.40;;;2.80;99.90;;;;;;5030657;28;20060;-75
2021/12/27 12:39:24;;;;;;;66.13;20.10;;;2.90;99.90;;;;;;5030998;28;20414;-76
2021/12/27 12:42:03;;;;;;;67.68;21.05;;;2.90;99.90;;;;;;5012067;28;20585;-75
2021/12/27 12:44:29;;;;;;;72.13;21.85;;;2.90;99.90;;;;;;5013147;28;20533;-75
2021/12/27 12:46:59;;;;;;;60.10;19.92;;;3.10;99.90;;;;;;5036435;28;20052;-75